sensor_id;sensor_type;location;lat;lon;timestamp;P1;durP1;ratioP1;P2;durP2;ratioP2
23390;SDS011;11868;45.606;5.302;2023-09-12T00:01:40;3.33;;;2.50;;
23390;SDS011;11868;45.606;5.302;2023-09-12T00:04:06;3.30;;;2.55;;
23390;SDS011;11868;45.606;5.302;2023-09-12T00:06:31;3.33;;;2.50;;
23390;SDS011;11868;45.606;5.302;2023-09-12T00:08:57;6.28;;;3.00;;
23390;SDS011;11868;45.606;5.302;2023-09-12T00:11:23;5.50;;;2.83;;
23390;SDS011;11868;45.606;5.302;2023-09-12T00:13:50;3.67;;;2.92;;
23390;SDS011;11868;45.606;5.302;2023-09-12T00:16:16;3.47;;;2.65;;
23390;SDS011;11868;45.606;5.302;2023-09-12T00:18:41;4.28;;;2.90;;
23390;SDS011;11868;45.606;5.302;2023-09-12T00:21:07;5.85;;;3.05;;
23390;SDS011;11868;45.606;5.302;2023-09-12T00:23:32;3.55;;;2.70;;
23390;SDS011;11868;45.606;5.302;2023-09-12T00:25:58;3.55;;;2.70;;
23390;SDS011;11868;45.606;5.302;2023-09-12T00:28:23;4.47;;;2.75;;
23390;SDS011;11868;45.606;5.302;2023-09-12T00:30:48;3.92;;;2.70;;
23390;SDS011;11868;45.606;5.302;2023-09-12T00:33:14;3.85;;;2.75;;
23390;SDS011;11868;45.606;5.302;2023-09-12T00:35:39;4.15;;;2.90;;
23390;SDS011;11868;45.606;5.302;2023-09-12T00:38:05;6.30;;;2.70;;
23390;SDS011;11868;45.606;5.302;2023-09-12T00:40:31;5.95;;;2.97;;
23390;SDS011;11868;45.606;5.302;2023-09-12T00:42:57;3.83;;;2.75;;
23390;SDS011;11868;45.606;5.302;2023-09-12T00:45:23;3.78;;;2.90;;
23390;SDS011;11868;45.606;5.302;2023-09-12T00:47:48;3.70;;;2.80;;
23390;SDS011;11868;45.606;5.302;2023-09-12T00:50:14;5.68;;;2.63;;
23390;SDS011;11868;45.606;5.302;2023-09-12T00:52:40;3.92;;;2.92;;
23390;SDS011;11868;45.606;5.302;2023-09-12T00:55:06;2.45;;;2.22;;
23390;SDS011;11868;45.606;5.302;2023-09-12T00:57:32;4.65;;;2.50;;
23390;SDS011;11868;45.606;5.302;2023-09-12T00:59:58;5.47;;;2.58;;
23390;SDS011;11868;45.606;5.302;2023-09-12T01:02:24;3.90;;;2.50;;
23390;SDS011;11868;45.606;5.302;2023-09-12T01:04:50;5.18;;;3.20;;
23390;SDS011;11868;45.606;5.302;2023-09-12T01:07:15;6.68;;;3.22;;
23390;SDS011;11868;45.606;5.302;2023-09-12T01:09:41;5.22;;;2.90;;
23390;SDS011;11868;45.606;5.302;2023-09-12T01:12:06;4.60;;;2.80;;
23390;SDS011;11868;45.606;5.302;2023-09-12T01:14:33;3.63;;;2.80;;
23390;SDS011;11868;45.606;5.302;2023-09-12T01:16:59;4.53;;;2.75;;
23390;SDS011;11868;45.606;5.302;2023-09-12T01:19:26;4.53;;;2.90;;
23390;SDS011;11868;45.606;5.302;2023-09-12T01:22:03;3.15;;;2.60;;
23390;SDS011;11868;45.606;5.302;2023-09-12T01:27:45;3.80;;;2.97;;
23390;SDS011;11868;45.606;5.302;2023-09-12T01:30:11;2.85;;;2.60;;
23390;SDS011;11868;45.606;5.302;2023-09-12T01:32:37;4.13;;;2.90;;
23390;SDS011;11868;45.606;5.302;2023-09-12T01:35:04;6.40;;;2.53;;
23390;SDS011;11868;45.606;5.302;2023-09-12T01:37:32;5.63;;;2.75;;
23390;SDS011;11868;45.606;5.302;2023-09-12T01:39:58;5.87;;;2.67;;
23390;SDS011;11868;45.606;5.302;2023-09-12T01:42:23;3.40;;;2.70;;
23390;SDS011;11868;45.606;5.302;2023-09-12T01:44:50;3.30;;;2.47;;
23390;SDS011;11868;45.606;5.302;2023-09-12T01:47:16;3.20;;;2.67;;
23390;SDS011;11868;45.606;5.302;2023-09-12T01:49:44;6.53;;;2.78;;
23390;SDS011;11868;45.606;5.302;2023-09-12T01:54:36;3.63;;;2.70;;
23390;SDS011;11868;45.606;5.302;2023-09-12T01:57:02;7.38;;;3.00;;
23390;SDS011;11868;45.606;5.302;2023-09-12T01:59:28;3.17;;;2.60;;
23390;SDS011;11868;45.606;5.302;2023-09-12T02:01:54;4.60;;;3.13;;
23390;SDS011;11868;45.606;5.302;2023-09-12T02:04:20;6.32;;;2.85;;
23390;SDS011;11868;45.606;5.302;2023-09-12T02:06:45;3.20;;;2.78;;
23390;SDS011;11868;45.606;5.302;2023-09-12T02:09:10;3.33;;;2.50;;
23390;SDS011;11868;45.606;5.302;2023-09-12T02:11:36;3.22;;;2.72;;
23390;SDS011;11868;45.606;5.302;2023-09-12T02:14:01;3.85;;;2.95;;
23390;SDS011;11868;45.606;5.302;2023-09-12T02:16:27;3.47;;;2.55;;
23390;SDS011;11868;45.606;5.302;2023-09-12T02:18:52;4.18;;;2.70;;
23390;SDS011;11868;45.606;5.302;2023-09-12T02:21:18;4.45;;;2.70;;
23390;SDS011;11868;45.606;5.302;2023-09-12T02:23:43;4.65;;;2.60;;
23390;SDS011;11868;45.606;5.302;2023-09-12T02:26:08;3.25;;;2.40;;
23390;SDS011;11868;45.606;5.302;2023-09-12T02:28:34;2.85;;;2.53;;
23390;SDS011;11868;45.606;5.302;2023-09-12T02:30:59;4.50;;;2.50;;
23390;SDS011;11868;45.606;5.302;2023-09-12T02:33:24;4.55;;;2.70;;
23390;SDS011;11868;45.606;5.302;2023-09-12T02:35:50;2.92;;;2.63;;
23390;SDS011;11868;45.606;5.302;2023-09-12T02:38:15;3.50;;;2.53;;
23390;SDS011;11868;45.606;5.302;2023-09-12T02:40:41;4.32;;;2.60;;
23390;SDS011;11868;45.606;5.302;2023-09-12T02:43:06;3.75;;;2.60;;
23390;SDS011;11868;45.606;5.302;2023-09-12T02:45:32;3.58;;;2.45;;
23390;SDS011;11868;45.606;5.302;2023-09-12T02:47:58;3.42;;;2.53;;
23390;SDS011;11868;45.606;5.302;2023-09-12T02:50:23;3.00;;;2.47;;
23390;SDS011;11868;45.606;5.302;2023-09-12T02:52:48;3.60;;;2.40;;
23390;SDS011;11868;45.606;5.302;2023-09-12T02:55:14;2.95;;;2.50;;
23390;SDS011;11868;45.606;5.302;2023-09-12T02:57:39;4.22;;;2.53;;
23390;SDS011;11868;45.606;5.302;2023-09-12T03:00:05;5.43;;;2.60;;
23390;SDS011;11868;45.606;5.302;2023-09-12T03:02:33;5.23;;;2.60;;
23390;SDS011;11868;45.606;5.302;2023-09-12T03:04:58;2.72;;;2.30;;
23390;SDS011;11868;45.606;5.302;2023-09-12T03:07:24;3.88;;;2.42;;
23390;SDS011;11868;45.606;5.302;2023-09-12T03:09:49;3.10;;;2.25;;
23390;SDS011;11868;45.606;5.302;2023-09-12T03:12:15;5.60;;;2.60;;
23390;SDS011;11868;45.606;5.302;2023-09-12T03:14:40;2.72;;;2.30;;
23390;SDS011;11868;45.606;5.302;2023-09-12T03:17:06;3.83;;;2.20;;
23390;SDS011;11868;45.606;5.302;2023-09-12T03:19:31;3.80;;;2.42;;
23390;SDS011;11868;45.606;5.302;2023-09-12T03:21:56;3.42;;;2.30;;
23390;SDS011;11868;45.606;5.302;2023-09-12T03:24:22;3.30;;;2.50;;
23390;SDS011;11868;45.606;5.302;2023-09-12T03:26:49;4.00;;;2.50;;
23390;SDS011;11868;45.606;5.302;2023-09-12T03:29:15;2.70;;;2.42;;
23390;SDS011;11868;45.606;5.302;2023-09-12T03:31:40;7.45;;;2.50;;
23390;SDS011;11868;45.606;5.302;2023-09-12T03:34:05;5.03;;;2.50;;
23390;SDS011;11868;45.606;5.302;2023-09-12T03:36:31;2.58;;;2.05;;
23390;SDS011;11868;45.606;5.302;2023-09-12T03:38:56;5.40;;;2.50;;
23390;SDS011;11868;45.606;5.302;2023-09-12T03:41:21;3.65;;;2.55;;
23390;SDS011;11868;45.606;5.302;2023-09-12T03:43:54;4.00;;;2.47;;
23390;SDS011;11868;45.606;5.302;2023-09-12T03:46:20;4.10;;;2.20;;
23390;SDS011;11868;45.606;5.302;2023-09-12T03:48:45;2.33;;;2.13;;
23390;SDS011;11868;45.606;5.302;2023-09-12T03:51:11;4.10;;;2.30;;
23390;SDS011;11868;45.606;5.302;2023-09-12T03:53:36;3.55;;;2.40;;
23390;SDS011;11868;45.606;5.302;2023-09-12T03:56:02;4.45;;;2.42;;
23390;SDS011;11868;45.606;5.302;2023-09-12T03:58:27;2.67;;;2.25;;
23390;SDS011;11868;45.606;5.302;2023-09-12T04:00:52;3.75;;;2.17;;
23390;SDS011;11868;45.606;5.302;2023-09-12T04:03:18;2.55;;;2.00;;
23390;SDS011;11868;45.606;5.302;2023-09-12T04:05:46;2.80;;;2.33;;
23390;SDS011;11868;45.606;5.302;2023-09-12T04:08:12;3.30;;;2.20;;
23390;SDS011;11868;45.606;5.302;2023-09-12T04:10:37;5.40;;;2.67;;
23390;SDS011;11868;45.606;5.302;2023-09-12T04:13:02;3.13;;;2.22;;
23390;SDS011;11868;45.606;5.302;2023-09-12T04:15:28;2.83;;;2.53;;
23390;SDS011;11868;45.606;5.302;2023-09-12T04:17:53;3.85;;;2.10;;
23390;SDS011;11868;45.606;5.302;2023-09-12T04:20:18;3.17;;;2.50;;
23390;SDS011;11868;45.606;5.302;2023-09-12T04:22:44;4.63;;;2.70;;
23390;SDS011;11868;45.606;5.302;2023-09-12T04:25:09;6.65;;;2.45;;
23390;SDS011;11868;45.606;5.302;2023-09-12T04:27:35;2.95;;;2.55;;
23390;SDS011;11868;45.606;5.302;2023-09-12T04:30:00;2.42;;;2.22;;
23390;SDS011;11868;45.606;5.302;2023-09-12T04:32:25;3.08;;;2.53;;
23390;SDS011;11868;45.606;5.302;2023-09-12T04:34:51;3.40;;;2.70;;
23390;SDS011;11868;45.606;5.302;2023-09-12T04:37:16;3.35;;;2.88;;
23390;SDS011;11868;45.606;5.302;2023-09-12T04:39:42;3.92;;;2.70;;
23390;SDS011;11868;45.606;5.302;2023-09-12T04:42:07;7.15;;;2.70;;
23390;SDS011;11868;45.606;5.302;2023-09-12T04:44:36;6.35;;;2.85;;
23390;SDS011;11868;45.606;5.302;2023-09-12T04:47:04;3.78;;;2.90;;
23390;SDS011;11868;45.606;5.302;2023-09-12T04:49:29;3.28;;;2.45;;
23390;SDS011;11868;45.606;5.302;2023-09-12T04:51:55;3.78;;;2.80;;
23390;SDS011;11868;45.606;5.302;2023-09-12T04:54:20;6.18;;;2.65;;
23390;SDS011;11868;45.606;5.302;2023-09-12T04:56:45;3.40;;;2.80;;
23390;SDS011;11868;45.606;5.302;2023-09-12T04:59:11;5.63;;;3.05;;
23390;SDS011;11868;45.606;5.302;2023-09-12T05:01:36;4.85;;;2.85;;
23390;SDS011;11868;45.606;5.302;2023-09-12T05:04:01;6.00;;;3.03;;
23390;SDS011;11868;45.606;5.302;2023-09-12T05:06:28;4.43;;;3.00;;
23390;SDS011;11868;45.606;5.302;2023-09-12T05:08:53;4.93;;;3.00;;
23390;SDS011;11868;45.606;5.302;2023-09-12T05:11:18;7.43;;;2.58;;
23390;SDS011;11868;45.606;5.302;2023-09-12T05:13:44;4.22;;;2.92;;
23390;SDS011;11868;45.606;5.302;2023-09-12T05:16:09;3.50;;;2.58;;
23390;SDS011;11868;45.606;5.302;2023-09-12T05:18:35;3.25;;;2.42;;
23390;SDS011;11868;45.606;5.302;2023-09-12T05:21:00;7.85;;;2.70;;
23390;SDS011;11868;45.606;5.302;2023-09-12T05:23:25;4.38;;;2.88;;
23390;SDS011;11868;45.606;5.302;2023-09-12T05:25:51;5.57;;;2.83;;
23390;SDS011;11868;45.606;5.302;2023-09-12T05:28:16;6.60;;;2.97;;
23390;SDS011;11868;45.606;5.302;2023-09-12T05:30:42;3.50;;;3.20;;
23390;SDS011;11868;45.606;5.302;2023-09-12T05:33:08;5.50;;;2.80;;
23390;SDS011;11868;45.606;5.302;2023-09-12T05:35:33;5.90;;;2.95;;
23390;SDS011;11868;45.606;5.302;2023-09-12T05:37:58;4.30;;;2.97;;
23390;SDS011;11868;45.606;5.302;2023-09-12T05:40:23;7.35;;;2.85;;
23390;SDS011;11868;45.606;5.302;2023-09-12T05:42:49;6.80;;;2.78;;
23390;SDS011;11868;45.606;5.302;2023-09-12T05:45:14;6.88;;;2.88;;
23390;SDS011;11868;45.606;5.302;2023-09-12T05:47:40;4.22;;;2.70;;
23390;SDS011;11868;45.606;5.302;2023-09-12T05:50:05;3.25;;;2.65;;
23390;SDS011;11868;45.606;5.302;2023-09-12T05:52:32;3.83;;;2.50;;
23390;SDS011;11868;45.606;5.302;2023-09-12T05:55:00;3.90;;;2.97;;
23390;SDS011;11868;45.606;5.302;2023-09-12T05:57:25;5.05;;;2.55;;
23390;SDS011;11868;45.606;5.302;2023-09-12T05:59:50;4.53;;;2.70;;
23390;SDS011;11868;45.606;5.302;2023-09-12T06:02:16;4.50;;;2.85;;
23390;SDS011;11868;45.606;5.302;2023-09-12T06:04:42;4.25;;;2.80;;
23390;SDS011;11868;45.606;5.302;2023-09-12T06:07:08;5.18;;;2.67;;
23390;SDS011;11868;45.606;5.302;2023-09-12T06:09:33;4.10;;;2.80;;
23390;SDS011;11868;45.606;5.302;2023-09-12T06:11:59;3.60;;;2.45;;
23390;SDS011;11868;45.606;5.302;2023-09-12T06:14:24;5.18;;;2.33;;
23390;SDS011;11868;45.606;5.302;2023-09-12T06:16:49;2.97;;;2.40;;
23390;SDS011;11868;45.606;5.302;2023-09-12T06:19:15;3.70;;;2.75;;
23390;SDS011;11868;45.606;5.302;2023-09-12T06:21:40;6.03;;;2.78;;
23390;SDS011;11868;45.606;5.302;2023-09-12T06:24:18;4.40;;;2.90;;
23390;SDS011;11868;45.606;5.302;2023-09-12T06:26:46;3.85;;;2.42;;
23390;SDS011;11868;45.606;5.302;2023-09-12T06:29:11;7.00;;;2.53;;
23390;SDS011;11868;45.606;5.302;2023-09-12T06:31:36;4.28;;;2.65;;
23390;SDS011;11868;45.606;5.302;2023-09-12T06:34:02;4.72;;;2.10;;
23390;SDS011;11868;45.606;5.302;2023-09-12T06:36:28;3.72;;;2.50;;
23390;SDS011;11868;45.606;5.302;2023-09-12T06:38:56;4.55;;;2.50;;
23390;SDS011;11868;45.606;5.302;2023-09-12T06:41:23;4.80;;;2.25;;
23390;SDS011;11868;45.606;5.302;2023-09-12T06:43:48;6.25;;;2.45;;
23390;SDS011;11868;45.606;5.302;2023-09-12T06:46:13;3.50;;;2.38;;
23390;SDS011;11868;45.606;5.302;2023-09-12T06:48:39;6.38;;;2.50;;
23390;SDS011;11868;45.606;5.302;2023-09-12T06:51:05;4.03;;;2.42;;
23390;SDS011;11868;45.606;5.302;2023-09-12T06:53:31;4.60;;;2.10;;
23390;SDS011;11868;45.606;5.302;2023-09-12T06:55:56;3.78;;;2.67;;
23390;SDS011;11868;45.606;5.302;2023-09-12T06:58:22;3.33;;;2.20;;
23390;SDS011;11868;45.606;5.302;2023-09-12T07:00:48;5.75;;;2.10;;
23390;SDS011;11868;45.606;5.302;2023-09-12T07:03:13;4.50;;;2.13;;
23390;SDS011;11868;45.606;5.302;2023-09-12T07:05:39;3.35;;;2.20;;
23390;SDS011;11868;45.606;5.302;2023-09-12T07:08:05;3.20;;;2.15;;
23390;SDS011;11868;45.606;5.302;2023-09-12T07:10:30;2.97;;;1.90;;
23390;SDS011;11868;45.606;5.302;2023-09-12T07:12:56;2.42;;;2.05;;
23390;SDS011;11868;45.606;5.302;2023-09-12T07:15:22;2.78;;;2.03;;
23390;SDS011;11868;45.606;5.302;2023-09-12T07:17:48;14.93;;;2.55;;
23390;SDS011;11868;45.606;5.302;2023-09-12T07:20:13;4.82;;;2.28;;
23390;SDS011;11868;45.606;5.302;2023-09-12T07:22:40;5.53;;;2.00;;
23390;SDS011;11868;45.606;5.302;2023-09-12T07:25:06;2.28;;;2.00;;
23390;SDS011;11868;45.606;5.302;2023-09-12T07:27:32;3.42;;;2.05;;
23390;SDS011;11868;45.606;5.302;2023-09-12T07:29:57;5.15;;;2.05;;
23390;SDS011;11868;45.606;5.302;2023-09-12T07:32:23;7.93;;;2.30;;
23390;SDS011;11868;45.606;5.302;2023-09-12T07:34:49;3.80;;;2.20;;
23390;SDS011;11868;45.606;5.302;2023-09-12T07:37:14;3.53;;;2.20;;
23390;SDS011;11868;45.606;5.302;2023-09-12T07:39:40;2.28;;;1.98;;
23390;SDS011;11868;45.606;5.302;2023-09-12T07:42:05;7.85;;;2.17;;
23390;SDS011;11868;45.606;5.302;2023-09-12T07:44:31;3.50;;;2.00;;
23390;SDS011;11868;45.606;5.302;2023-09-12T07:46:56;4.15;;;2.22;;
23390;SDS011;11868;45.606;5.302;2023-09-12T07:49:21;4.40;;;1.90;;
23390;SDS011;11868;45.606;5.302;2023-09-12T07:51:46;2.88;;;1.98;;
23390;SDS011;11868;45.606;5.302;2023-09-12T07:54:12;5.88;;;2.22;;
23390;SDS011;11868;45.606;5.302;2023-09-12T07:56:38;3.83;;;1.80;;
23390;SDS011;11868;45.606;5.302;2023-09-12T07:59:03;8.98;;;1.85;;
23390;SDS011;11868;45.606;5.302;2023-09-12T08:01:29;4.13;;;1.90;;
23390;SDS011;11868;45.606;5.302;2023-09-12T08:03:54;3.13;;;2.17;;
23390;SDS011;11868;45.606;5.302;2023-09-12T08:06:19;3.20;;;1.77;;
23390;SDS011;11868;45.606;5.302;2023-09-12T08:08:45;5.88;;;2.10;;
23390;SDS011;11868;45.606;5.302;2023-09-12T08:11:10;3.53;;;2.13;;
23390;SDS011;11868;45.606;5.302;2023-09-12T08:13:35;3.67;;;1.80;;
23390;SDS011;11868;45.606;5.302;2023-09-12T08:16:01;1.98;;;1.77;;
23390;SDS011;11868;45.606;5.302;2023-09-12T08:18:27;2.97;;;2.10;;
23390;SDS011;11868;45.606;5.302;2023-09-12T08:20:54;3.15;;;1.98;;
23390;SDS011;11868;45.606;5.302;2023-09-12T08:23:20;1.83;;;1.58;;
23390;SDS011;11868;45.606;5.302;2023-09-12T08:25:45;2.17;;;1.70;;
23390;SDS011;11868;45.606;5.302;2023-09-12T08:28:10;4.88;;;1.67;;
23390;SDS011;11868;45.606;5.302;2023-09-12T08:30:36;2.65;;;1.80;;
23390;SDS011;11868;45.606;5.302;2023-09-12T08:33:01;4.03;;;1.88;;
23390;SDS011;11868;45.606;5.302;2023-09-12T08:35:29;4.38;;;1.80;;
23390;SDS011;11868;45.606;5.302;2023-09-12T08:37:54;2.78;;;1.70;;
23390;SDS011;11868;45.606;5.302;2023-09-12T08:40:20;5.63;;;1.80;;
23390;SDS011;11868;45.606;5.302;2023-09-12T08:42:45;5.47;;;1.60;;
23390;SDS011;11868;45.606;5.302;2023-09-12T08:45:15;2.80;;;1.80;;
23390;SDS011;11868;45.606;5.302;2023-09-12T08:47:46;1.67;;;1.50;;
23390;SDS011;11868;45.606;5.302;2023-09-12T08:50:15;4.30;;;1.85;;
23390;SDS011;11868;45.606;5.302;2023-09-12T08:52:41;6.10;;;1.80;;
23390;SDS011;11868;45.606;5.302;2023-09-12T08:55:07;2.35;;;1.63;;
23390;SDS011;11868;45.606;5.302;2023-09-12T08:57:33;4.50;;;1.60;;
23390;SDS011;11868;45.606;5.302;2023-09-12T09:00:01;2.80;;;1.90;;
23390;SDS011;11868;45.606;5.302;2023-09-12T09:02:31;4.07;;;1.75;;
23390;SDS011;11868;45.606;5.302;2023-09-12T09:04:57;2.15;;;1.70;;
23390;SDS011;11868;45.606;5.302;2023-09-12T09:07:23;2.95;;;1.55;;
23390;SDS011;11868;45.606;5.302;2023-09-12T09:09:49;6.47;;;1.73;;
23390;SDS011;11868;45.606;5.302;2023-09-12T09:12:16;3.97;;;1.90;;
23390;SDS011;11868;45.606;5.302;2023-09-12T09:14:42;3.55;;;1.63;;
23390;SDS011;11868;45.606;5.302;2023-09-12T09:17:07;4.03;;;1.85;;
23390;SDS011;11868;45.606;5.302;2023-09-12T09:19:42;18.90;;;1.73;;
23390;SDS011;11868;45.606;5.302;2023-09-12T09:22:08;6.00;;;2.17;;
23390;SDS011;11868;45.606;5.302;2023-09-12T09:24:34;3.70;;;2.00;;
23390;SDS011;11868;45.606;5.302;2023-09-12T09:26:59;4.00;;;2.00;;
23390;SDS011;11868;45.606;5.302;2023-09-12T09:29:26;3.15;;;1.90;;
23390;SDS011;11868;45.606;5.302;2023-09-12T09:31:56;2.63;;;2.10;;
23390;SDS011;11868;45.606;5.302;2023-09-12T09:34:22;4.20;;;1.92;;
23390;SDS011;11868;45.606;5.302;2023-09-12T09:39:18;4.00;;;2.20;;
23390;SDS011;11868;45.606;5.302;2023-09-12T09:41:48;2.55;;;1.90;;
23390;SDS011;11868;45.606;5.302;2023-09-12T09:44:17;2.70;;;2.10;;
23390;SDS011;11868;45.606;5.302;2023-09-12T09:46:43;2.80;;;1.88;;
23390;SDS011;11868;45.606;5.302;2023-09-12T09:49:15;6.05;;;2.60;;
23390;SDS011;11868;45.606;5.302;2023-09-12T09:51:42;2.80;;;2.40;;
23390;SDS011;11868;45.606;5.302;2023-09-12T09:54:09;4.82;;;2.28;;
23390;SDS011;11868;45.606;5.302;2023-09-12T09:56:47;6.03;;;2.35;;
23390;SDS011;11868;45.606;5.302;2023-09-12T10:01:40;6.00;;;2.50;;
23390;SDS011;11868;45.606;5.302;2023-09-12T10:04:06;5.75;;;3.35;;
23390;SDS011;11868;45.606;5.302;2023-09-12T10:06:32;7.85;;;5.53;;
23390;SDS011;11868;45.606;5.302;2023-09-12T10:09:00;4.78;;;3.35;;
23390;SDS011;11868;45.606;5.302;2023-09-12T10:11:31;13.02;;;6.25;;
23390;SDS011;11868;45.606;5.302;2023-09-12T10:14:02;14.20;;;9.82;;
23390;SDS011;11868;45.606;5.302;2023-09-12T10:16:35;7.00;;;3.63;;
23390;SDS011;11868;45.606;5.302;2023-09-12T10:21:36;7.80;;;3.13;;
23390;SDS011;11868;45.606;5.302;2023-09-12T10:24:02;5.88;;;2.80;;
23390;SDS011;11868;45.606;5.302;2023-09-12T10:26:28;4.40;;;3.03;;
23390;SDS011;11868;45.606;5.302;2023-09-12T10:28:56;5.00;;;3.08;;
23390;SDS011;11868;45.606;5.302;2023-09-12T10:31:22;5.43;;;2.72;;
23390;SDS011;11868;45.606;5.302;2023-09-12T10:33:49;6.40;;;2.85;;
23390;SDS011;11868;45.606;5.302;2023-09-12T10:36:15;3.65;;;2.47;;
23390;SDS011;11868;45.606;5.302;2023-09-12T10:38:43;6.03;;;3.08;;
23390;SDS011;11868;45.606;5.302;2023-09-12T10:41:12;4.90;;;2.88;;
23390;SDS011;11868;45.606;5.302;2023-09-12T10:43:39;4.18;;;2.75;;
23390;SDS011;11868;45.606;5.302;2023-09-12T10:46:11;4.50;;;2.47;;
23390;SDS011;11868;45.606;5.302;2023-09-12T10:48:37;3.55;;;2.47;;
23390;SDS011;11868;45.606;5.302;2023-09-12T10:51:05;6.68;;;2.90;;
23390;SDS011;11868;45.606;5.302;2023-09-12T10:53:31;4.05;;;2.58;;
23390;SDS011;11868;45.606;5.302;2023-09-12T10:56:20;2.47;;;2.25;;
23390;SDS011;11868;45.606;5.302;2023-09-12T10:59:08;3.50;;;2.80;;
23390;SDS011;11868;45.606;5.302;2023-09-12T11:01:31;2.92;;;2.50;;
23390;SDS011;11868;45.606;5.302;2023-09-12T11:03:57;3.30;;;2.45;;
23390;SDS011;11868;45.606;5.302;2023-09-12T11:06:28;5.47;;;2.80;;
23390;SDS011;11868;45.606;5.302;2023-09-12T11:11:38;5.07;;;2.58;;
23390;SDS011;11868;45.606;5.302;2023-09-12T11:14:04;5.00;;;2.38;;
23390;SDS011;11868;45.606;5.302;2023-09-12T11:16:30;5.15;;;2.85;;
23390;SDS011;11868;45.606;5.302;2023-09-12T11:21:45;3.22;;;2.40;;
23390;SDS011;11868;45.606;5.302;2023-09-12T11:24:12;5.38;;;2.58;;
23390;SDS011;11868;45.606;5.302;2023-09-12T11:26:56;4.95;;;2.50;;
23390;SDS011;11868;45.606;5.302;2023-09-12T11:29:30;5.75;;;2.50;;
23390;SDS011;11868;45.606;5.302;2023-09-12T11:32:00;4.20;;;2.50;;
23390;SDS011;11868;45.606;5.302;2023-09-12T11:34:28;4.38;;;2.53;;
23390;SDS011;11868;45.606;5.302;2023-09-12T11:36:55;4.20;;;2.75;;
23390;SDS011;11868;45.606;5.302;2023-09-12T11:39:23;5.40;;;2.83;;
23390;SDS011;11868;45.606;5.302;2023-09-12T11:41:52;3.72;;;2.45;;
23390;SDS011;11868;45.606;5.302;2023-09-12T11:44:19;6.07;;;2.58;;
23390;SDS011;11868;45.606;5.302;2023-09-12T11:46:47;4.93;;;2.30;;
23390;SDS011;11868;45.606;5.302;2023-09-12T11:49:14;2.45;;;2.15;;
23390;SDS011;11868;45.606;5.302;2023-09-12T11:51:53;4.38;;;2.40;;
23390;SDS011;11868;45.606;5.302;2023-09-12T11:54:19;5.47;;;2.78;;
23390;SDS011;11868;45.606;5.302;2023-09-12T11:56:48;3.65;;;2.20;;
23390;SDS011;11868;45.606;5.302;2023-09-12T12:01:40;6.65;;;2.42;;
23390;SDS011;11868;45.606;5.302;2023-09-12T12:04:06;4.25;;;2.40;;
23390;SDS011;11868;45.606;5.302;2023-09-12T12:06:32;4.25;;;2.53;;
23390;SDS011;11868;45.606;5.302;2023-09-12T12:08:57;2.58;;;2.30;;
23390;SDS011;11868;45.606;5.302;2023-09-12T12:11:27;3.40;;;2.47;;
23390;SDS011;11868;45.606;5.302;2023-09-12T12:16:18;2.57;;;2.30;;
23390;SDS011;11868;45.606;5.302;2023-09-12T12:18:43;4.63;;;2.50;;
23390;SDS011;11868;45.606;5.302;2023-09-12T12:21:08;4.10;;;2.50;;
23390;SDS011;11868;45.606;5.302;2023-09-12T12:23:34;8.25;;;2.20;;
23390;SDS011;11868;45.606;5.302;2023-09-12T12:26:03;4.10;;;2.08;;
23390;SDS011;11868;45.606;5.302;2023-09-12T12:28:30;4.80;;;2.45;;
23390;SDS011;11868;45.606;5.302;2023-09-12T12:30:56;3.88;;;2.53;;
23390;SDS011;11868;45.606;5.302;2023-09-12T12:33:21;4.38;;;2.22;;
23390;SDS011;11868;45.606;5.302;2023-09-12T12:35:47;6.82;;;2.47;;
23390;SDS011;11868;45.606;5.302;2023-09-12T12:38:12;2.97;;;2.53;;
23390;SDS011;11868;45.606;5.302;2023-09-12T12:40:38;4.32;;;2.70;;
23390;SDS011;11868;45.606;5.302;2023-09-12T12:43:05;3.83;;;2.45;;
23390;SDS011;11868;45.606;5.302;2023-09-12T12:45:31;6.90;;;2.60;;
23390;SDS011;11868;45.606;5.302;2023-09-12T12:48:00;4.45;;;2.70;;
23390;SDS011;11868;45.606;5.302;2023-09-12T12:50:26;9.50;;;2.90;;
23390;SDS011;11868;45.606;5.302;2023-09-12T12:52:51;6.22;;;2.42;;
23390;SDS011;11868;45.606;5.302;2023-09-12T12:55:17;4.07;;;2.30;;
23390;SDS011;11868;45.606;5.302;2023-09-12T12:57:44;8.63;;;2.58;;
23390;SDS011;11868;45.606;5.302;2023-09-12T13:00:10;6.72;;;2.42;;
23390;SDS011;11868;45.606;5.302;2023-09-12T13:02:40;11.57;;;2.70;;
23390;SDS011;11868;45.606;5.302;2023-09-12T13:08:05;3.35;;;2.50;;
23390;SDS011;11868;45.606;5.302;2023-09-12T13:10:31;2.58;;;2.38;;
23390;SDS011;11868;45.606;5.302;2023-09-12T13:12:56;4.78;;;2.65;;
23390;SDS011;11868;45.606;5.302;2023-09-12T13:15:22;3.75;;;2.70;;
23390;SDS011;11868;45.606;5.302;2023-09-12T13:17:47;5.75;;;3.10;;
23390;SDS011;11868;45.606;5.302;2023-09-12T13:20:14;5.45;;;2.80;;
23390;SDS011;11868;45.606;5.302;2023-09-12T13:22:39;4.00;;;3.10;;
23390;SDS011;11868;45.606;5.302;2023-09-12T13:25:05;8.82;;;2.90;;
23390;SDS011;11868;45.606;5.302;2023-09-12T13:27:31;3.53;;;2.72;;
23390;SDS011;11868;45.606;5.302;2023-09-12T13:29:56;10.05;;;2.90;;
23390;SDS011;11868;45.606;5.302;2023-09-12T13:32:22;3.88;;;2.88;;
23390;SDS011;11868;45.606;5.302;2023-09-12T13:34:47;5.38;;;3.00;;
23390;SDS011;11868;45.606;5.302;2023-09-12T13:37:14;3.75;;;2.67;;
23390;SDS011;11868;45.606;5.302;2023-09-12T13:39:41;7.00;;;2.92;;
23390;SDS011;11868;45.606;5.302;2023-09-12T13:42:12;6.07;;;2.65;;
23390;SDS011;11868;45.606;5.302;2023-09-12T13:44:39;4.57;;;2.70;;
23390;SDS011;11868;45.606;5.302;2023-09-12T13:47:04;4.38;;;2.80;;
23390;SDS011;11868;45.606;5.302;2023-09-12T13:49:30;6.55;;;2.42;;
23390;SDS011;11868;45.606;5.302;2023-09-12T13:51:55;4.72;;;2.85;;
23390;SDS011;11868;45.606;5.302;2023-09-12T13:54:20;5.35;;;2.88;;
23390;SDS011;11868;45.606;5.302;2023-09-12T13:56:46;4.45;;;2.90;;
23390;SDS011;11868;45.606;5.302;2023-09-12T13:59:11;5.80;;;3.15;;
23390;SDS011;11868;45.606;5.302;2023-09-12T14:01:37;6.88;;;2.75;;
23390;SDS011;11868;45.606;5.302;2023-09-12T14:04:03;8.02;;;2.58;;
23390;SDS011;11868;45.606;5.302;2023-09-12T14:06:28;3.75;;;3.05;;
23390;SDS011;11868;45.606;5.302;2023-09-12T14:08:54;4.63;;;3.20;;
23390;SDS011;11868;45.606;5.302;2023-09-12T14:11:19;3.65;;;3.00;;
23390;SDS011;11868;45.606;5.302;2023-09-12T14:13:44;6.72;;;2.83;;
23390;SDS011;11868;45.606;5.302;2023-09-12T14:16:10;10.50;;;3.05;;
23390;SDS011;11868;45.606;5.302;2023-09-12T14:18:35;4.43;;;3.00;;
23390;SDS011;11868;45.606;5.302;2023-09-12T14:21:00;4.50;;;2.90;;
23390;SDS011;11868;45.606;5.302;2023-09-12T14:23:26;7.80;;;3.53;;
23390;SDS011;11868;45.606;5.302;2023-09-12T14:25:51;5.05;;;3.40;;
23390;SDS011;11868;45.606;5.302;2023-09-12T14:28:17;5.68;;;3.10;;
23390;SDS011;11868;45.606;5.302;2023-09-12T14:30:42;3.25;;;2.95;;
23390;SDS011;11868;45.606;5.302;2023-09-12T14:33:10;7.40;;;3.00;;
23390;SDS011;11868;45.606;5.302;2023-09-12T14:35:36;10.90;;;3.20;;
23390;SDS011;11868;45.606;5.302;2023-09-12T14:38:02;4.28;;;3.00;;
23390;SDS011;11868;45.606;5.302;2023-09-12T14:40:27;6.70;;;3.22;;
23390;SDS011;11868;45.606;5.302;2023-09-12T14:42:53;6.07;;;3.55;;
23390;SDS011;11868;45.606;5.302;2023-09-12T14:45:18;3.88;;;3.10;;
23390;SDS011;11868;45.606;5.302;2023-09-12T14:47:44;4.88;;;3.55;;
23390;SDS011;11868;45.606;5.302;2023-09-12T14:50:09;5.65;;;3.47;;
23390;SDS011;11868;45.606;5.302;2023-09-12T14:52:35;6.70;;;3.55;;
23390;SDS011;11868;45.606;5.302;2023-09-12T14:55:00;8.25;;;3.83;;
23390;SDS011;11868;45.606;5.302;2023-09-12T14:57:27;4.93;;;3.55;;
23390;SDS011;11868;45.606;5.302;2023-09-12T14:59:53;9.55;;;3.85;;
23390;SDS011;11868;45.606;5.302;2023-09-12T15:02:20;8.43;;;3.50;;
23390;SDS011;11868;45.606;5.302;2023-09-12T15:04:46;4.35;;;3.47;;
23390;SDS011;11868;45.606;5.302;2023-09-12T15:07:11;7.90;;;3.80;;
23390;SDS011;11868;45.606;5.302;2023-09-12T15:09:36;6.40;;;3.70;;